sensor_id;sensor_type;location;lat;lon;timestamp;P1;durP1;ratioP1;P2;durP2;ratioP2
6828;SDS011;17930;48.592;8.868;2022-12-07T00:01:24;9.00;;;5.55;;
6828;SDS011;17930;48.592;8.868;2022-12-07T00:03:53;9.82;;;6.20;;
6828;SDS011;17930;48.592;8.868;2022-12-07T00:06:25;13.70;;;6.53;;
6828;SDS011;17930;48.592;8.868;2022-12-07T00:08:52;13.63;;;7.32;;
6828;SDS011;17930;48.592;8.868;2022-12-07T00:11:20;9.38;;;5.00;;
6828;SDS011;17930;48.592;8.868;2022-12-07T00:13:50;10.15;;;5.53;;
6828;SDS011;17930;48.592;8.868;2022-12-07T00:16:19;11.32;;;5.85;;
6828;SDS011;17930;48.592;8.868;2022-12-07T00:18:48;11.60;;;5.25;;
6828;SDS011;17930;48.592;8.868;2022-12-07T00:21:15;11.45;;;5.45;;
6828;SDS011;17930;48.592;8.868;2022-12-07T00:23:44;9.88;;;5.30;;
6828;SDS011;17930;48.592;8.868;2022-12-07T00:26:13;7.43;;;4.35;;
6828;SDS011;17930;48.592;8.868;2022-12-07T00:28:41;7.90;;;4.80;;
6828;SDS011;17930;48.592;8.868;2022-12-07T00:31:11;10.02;;;4.78;;
6828;SDS011;17930;48.592;8.868;2022-12-07T00:33:39;8.98;;;4.68;;
6828;SDS011;17930;48.592;8.868;2022-12-07T00:36:07;8.70;;;5.38;;
6828;SDS011;17930;48.592;8.868;2022-12-07T00:38:36;7.93;;;4.75;;
6828;SDS011;17930;48.592;8.868;2022-12-07T00:41:04;6.28;;;4.35;;
6828;SDS011;17930;48.592;8.868;2022-12-07T00:43:33;6.93;;;4.10;;
6828;SDS011;17930;48.592;8.868;2022-12-07T00:46:00;7.50;;;4.75;;
6828;SDS011;17930;48.592;8.868;2022-12-07T00:48:26;6.35;;;4.10;;
6828;SDS011;17930;48.592;8.868;2022-12-07T00:50:54;7.35;;;4.20;;
6828;SDS011;17930;48.592;8.868;2022-12-07T00:53:22;7.88;;;4.22;;
6828;SDS011;17930;48.592;8.868;2022-12-07T00:55:49;7.25;;;3.72;;
6828;SDS011;17930;48.592;8.868;2022-12-07T00:58:16;8.63;;;4.65;;
6828;SDS011;17930;48.592;8.868;2022-12-07T01:00:42;6.40;;;3.83;;
6828;SDS011;17930;48.592;8.868;2022-12-07T01:03:10;5.75;;;3.75;;
6828;SDS011;17930;48.592;8.868;2022-12-07T01:05:38;6.18;;;3.63;;
6828;SDS011;17930;48.592;8.868;2022-12-07T01:08:05;6.95;;;4.28;;
6828;SDS011;17930;48.592;8.868;2022-12-07T01:10:34;6.18;;;3.88;;
6828;SDS011;17930;48.592;8.868;2022-12-07T01:13:00;6.10;;;3.90;;
6828;SDS011;17930;48.592;8.868;2022-12-07T01:15:27;7.38;;;4.68;;
6828;SDS011;17930;48.592;8.868;2022-12-07T01:17:54;8.32;;;4.63;;
6828;SDS011;17930;48.592;8.868;2022-12-07T01:20:21;8.23;;;4.72;;
6828;SDS011;17930;48.592;8.868;2022-12-07T01:22:48;8.20;;;4.32;;
6828;SDS011;17930;48.592;8.868;2022-12-07T01:25:14;8.13;;;4.88;;
6828;SDS011;17930;48.592;8.868;2022-12-07T01:27:42;7.43;;;4.35;;
6828;SDS011;17930;48.592;8.868;2022-12-07T01:30:09;7.30;;;4.40;;
6828;SDS011;17930;48.592;8.868;2022-12-07T01:32:37;8.00;;;4.45;;
6828;SDS011;17930;48.592;8.868;2022-12-07T01:35:04;8.10;;;4.93;;
6828;SDS011;17930;48.592;8.868;2022-12-07T01:37:33;8.85;;;4.53;;
6828;SDS011;17930;48.592;8.868;2022-12-07T01:40:02;8.13;;;4.78;;
6828;SDS011;17930;48.592;8.868;2022-12-07T01:42:30;9.75;;;4.63;;
6828;SDS011;17930;48.592;8.868;2022-12-07T01:48:03;11.57;;;5.50;;
6828;SDS011;17930;48.592;8.868;2022-12-07T01:50:31;11.63;;;5.60;;
6828;SDS011;17930;48.592;8.868;2022-12-07T01:52:58;10.65;;;5.18;;
6828;SDS011;17930;48.592;8.868;2022-12-07T01:55:30;14.18;;;6.40;;
6828;SDS011;17930;48.592;8.868;2022-12-07T01:57:56;9.90;;;4.65;;
6828;SDS011;17930;48.592;8.868;2022-12-07T02:00:24;10.77;;;5.50;;
6828;SDS011;17930;48.592;8.868;2022-12-07T02:02:53;12.00;;;4.90;;
6828;SDS011;17930;48.592;8.868;2022-12-07T02:05:23;8.48;;;5.03;;
6828;SDS011;17930;48.592;8.868;2022-12-07T02:07:52;8.18;;;4.65;;
6828;SDS011;17930;48.592;8.868;2022-12-07T02:10:22;9.85;;;4.93;;
6828;SDS011;17930;48.592;8.868;2022-12-07T02:12:52;10.90;;;5.30;;
6828;SDS011;17930;48.592;8.868;2022-12-07T02:15:23;8.10;;;4.55;;
6828;SDS011;17930;48.592;8.868;2022-12-07T02:18:00;10.10;;;4.55;;
6828;SDS011;17930;48.592;8.868;2022-12-07T02:20:32;6.60;;;3.85;;
6828;SDS011;17930;48.592;8.868;2022-12-07T02:23:09;6.53;;;3.67;;
6828;SDS011;17930;48.592;8.868;2022-12-07T02:26:02;5.03;;;3.42;;
6828;SDS011;17930;48.592;8.868;2022-12-07T02:28:56;6.95;;;4.25;;
6828;SDS011;17930;48.592;8.868;2022-12-07T02:31:37;6.78;;;4.00;;
6828;SDS011;17930;48.592;8.868;2022-12-07T02:34:11;6.97;;;3.60;;
6828;SDS011;17930;48.592;8.868;2022-12-07T02:36:45;7.05;;;4.30;;
6828;SDS011;17930;48.592;8.868;2022-12-07T02:39:17;9.10;;;4.55;;
6828;SDS011;17930;48.592;8.868;2022-12-07T02:41:51;6.68;;;3.90;;
6828;SDS011;17930;48.592;8.868;2022-12-07T02:44:24;7.50;;;4.65;;
6828;SDS011;17930;48.592;8.868;2022-12-07T02:46:54;8.60;;;4.90;;
6828;SDS011;17930;48.592;8.868;2022-12-07T02:49:24;7.38;;;4.53;;
6828;SDS011;17930;48.592;8.868;2022-12-07T02:51:53;8.90;;;5.00;;
6828;SDS011;17930;48.592;8.868;2022-12-07T02:54:20;9.70;;;4.53;;
6828;SDS011;17930;48.592;8.868;2022-12-07T02:56:48;8.25;;;4.82;;
6828;SDS011;17930;48.592;8.868;2022-12-07T02:59:22;6.95;;;3.83;;
6828;SDS011;17930;48.592;8.868;2022-12-07T03:02:03;8.93;;;5.30;;
6828;SDS011;17930;48.592;8.868;2022-12-07T03:04:45;9.20;;;5.43;;
6828;SDS011;17930;48.592;8.868;2022-12-07T03:07:25;10.00;;;5.30;;
6828;SDS011;17930;48.592;8.868;2022-12-07T03:10:01;9.73;;;5.63;;
6828;SDS011;17930;48.592;8.868;2022-12-07T03:12:35;9.88;;;5.32;;
6828;SDS011;17930;48.592;8.868;2022-12-07T03:15:12;8.77;;;5.25;;
6828;SDS011;17930;48.592;8.868;2022-12-07T03:17:42;9.93;;;5.97;;
6828;SDS011;17930;48.592;8.868;2022-12-07T03:20:13;11.48;;;5.43;;
6828;SDS011;17930;48.592;8.868;2022-12-07T03:22:43;11.65;;;6.13;;
6828;SDS011;17930;48.592;8.868;2022-12-07T03:25:13;7.63;;;4.53;;
6828;SDS011;17930;48.592;8.868;2022-12-07T03:27:44;11.18;;;5.90;;
6828;SDS011;17930;48.592;8.868;2022-12-07T03:30:19;8.57;;;5.20;;
6828;SDS011;17930;48.592;8.868;2022-12-07T03:32:48;9.90;;;5.75;;
6828;SDS011;17930;48.592;8.868;2022-12-07T03:35:20;13.13;;;5.78;;
6828;SDS011;17930;48.592;8.868;2022-12-07T03:37:52;11.57;;;5.40;;
6828;SDS011;17930;48.592;8.868;2022-12-07T03:40:23;9.80;;;5.15;;
6828;SDS011;17930;48.592;8.868;2022-12-07T03:42:55;11.13;;;5.57;;
6828;SDS011;17930;48.592;8.868;2022-12-07T03:45:27;9.38;;;5.43;;
6828;SDS011;17930;48.592;8.868;2022-12-07T03:48:02;9.30;;;5.05;;
6828;SDS011;17930;48.592;8.868;2022-12-07T03:50:35;12.43;;;5.63;;
6828;SDS011;17930;48.592;8.868;2022-12-07T03:53:09;12.45;;;5.95;;
6828;SDS011;17930;48.592;8.868;2022-12-07T03:55:41;9.73;;;6.18;;
6828;SDS011;17930;48.592;8.868;2022-12-07T03:58:10;14.07;;;6.50;;
6828;SDS011;17930;48.592;8.868;2022-12-07T04:00:41;12.63;;;5.95;;
6828;SDS011;17930;48.592;8.868;2022-12-07T04:03:09;12.48;;;6.25;;
6828;SDS011;17930;48.592;8.868;2022-12-07T04:05:36;12.05;;;6.65;;
6828;SDS011;17930;48.592;8.868;2022-12-07T04:08:04;12.18;;;6.55;;
6828;SDS011;17930;48.592;8.868;2022-12-07T04:10:31;10.48;;;5.68;;
6828;SDS011;17930;48.592;8.868;2022-12-07T04:12:58;12.13;;;6.00;;
6828;SDS011;17930;48.592;8.868;2022-12-07T04:15:24;11.75;;;6.60;;
6828;SDS011;17930;48.592;8.868;2022-12-07T04:17:52;13.23;;;6.65;;
6828;SDS011;17930;48.592;8.868;2022-12-07T04:20:20;11.00;;;6.00;;
6828;SDS011;17930;48.592;8.868;2022-12-07T04:22:46;12.07;;;6.07;;
6828;SDS011;17930;48.592;8.868;2022-12-07T04:25:13;11.43;;;6.10;;
6828;SDS011;17930;48.592;8.868;2022-12-07T04:27:40;11.32;;;5.82;;
6828;SDS011;17930;48.592;8.868;2022-12-07T04:30:07;11.10;;;5.95;;
6828;SDS011;17930;48.592;8.868;2022-12-07T04:32:34;12.10;;;6.40;;
6828;SDS011;17930;48.592;8.868;2022-12-07T04:35:03;11.80;;;6.55;;
6828;SDS011;17930;48.592;8.868;2022-12-07T04:37:30;11.25;;;5.75;;
6828;SDS011;17930;48.592;8.868;2022-12-07T04:39:57;12.40;;;5.55;;
6828;SDS011;17930;48.592;8.868;2022-12-07T04:42:23;12.10;;;5.78;;
6828;SDS011;17930;48.592;8.868;2022-12-07T04:44:50;12.05;;;6.38;;
6828;SDS011;17930;48.592;8.868;2022-12-07T04:47:17;13.57;;;6.80;;
6828;SDS011;17930;48.592;8.868;2022-12-07T04:49:44;9.68;;;6.10;;
6828;SDS011;17930;48.592;8.868;2022-12-07T04:52:12;14.30;;;7.22;;
6828;SDS011;17930;48.592;8.868;2022-12-07T04:54:38;13.82;;;6.47;;
6828;SDS011;17930;48.592;8.868;2022-12-07T04:57:05;10.93;;;6.03;;
6828;SDS011;17930;48.592;8.868;2022-12-07T04:59:32;14.50;;;6.20;;
6828;SDS011;17930;48.592;8.868;2022-12-07T05:01:58;12.63;;;5.72;;
6828;SDS011;17930;48.592;8.868;2022-12-07T05:04:25;10.00;;;5.88;;
6828;SDS011;17930;48.592;8.868;2022-12-07T05:06:52;8.98;;;5.10;;
6828;SDS011;17930;48.592;8.868;2022-12-07T05:09:20;12.13;;;6.03;;
6828;SDS011;17930;48.592;8.868;2022-12-07T05:11:47;13.65;;;6.25;;
6828;SDS011;17930;48.592;8.868;2022-12-07T05:14:14;11.23;;;5.55;;
6828;SDS011;17930;48.592;8.868;2022-12-07T05:16:42;10.63;;;5.13;;
6828;SDS011;17930;48.592;8.868;2022-12-07T05:19:10;10.93;;;5.68;;
6828;SDS011;17930;48.592;8.868;2022-12-07T05:21:38;12.80;;;6.80;;
6828;SDS011;17930;48.592;8.868;2022-12-07T05:24:06;11.73;;;6.15;;
6828;SDS011;17930;48.592;8.868;2022-12-07T05:26:35;12.00;;;5.35;;
6828;SDS011;17930;48.592;8.868;2022-12-07T05:29:02;12.82;;;5.88;;
6828;SDS011;17930;48.592;8.868;2022-12-07T05:31:29;10.82;;;6.07;;
6828;SDS011;17930;48.592;8.868;2022-12-07T05:33:56;12.25;;;6.32;;
6828;SDS011;17930;48.592;8.868;2022-12-07T05:36:23;11.85;;;6.45;;
6828;SDS011;17930;48.592;8.868;2022-12-07T05:38:49;12.65;;;6.45;;
6828;SDS011;17930;48.592;8.868;2022-12-07T05:41:17;13.45;;;6.13;;
6828;SDS011;17930;48.592;8.868;2022-12-07T05:44:03;13.20;;;6.40;;
6828;SDS011;17930;48.592;8.868;2022-12-07T05:46:31;10.93;;;5.78;;
6828;SDS011;17930;48.592;8.868;2022-12-07T05:48:58;12.60;;;5.80;;
6828;SDS011;17930;48.592;8.868;2022-12-07T05:51:25;13.32;;;6.85;;
6828;SDS011;17930;48.592;8.868;2022-12-07T05:53:52;13.93;;;5.60;;
6828;SDS011;17930;48.592;8.868;2022-12-07T05:56:19;13.23;;;6.22;;
6828;SDS011;17930;48.592;8.868;2022-12-07T05:58:46;13.80;;;6.57;;
6828;SDS011;17930;48.592;8.868;2022-12-07T06:01:32;17.70;;;7.47;;
6828;SDS011;17930;48.592;8.868;2022-12-07T06:03:59;14.18;;;6.90;;
6828;SDS011;17930;48.592;8.868;2022-12-07T06:06:25;15.07;;;7.47;;
6828;SDS011;17930;48.592;8.868;2022-12-07T06:11:34;12.70;;;7.25;;
6828;SDS011;17930;48.592;8.868;2022-12-07T06:14:18;18.15;;;7.50;;
6828;SDS011;17930;48.592;8.868;2022-12-07T06:16:47;13.45;;;6.47;;
6828;SDS011;17930;48.592;8.868;2022-12-07T06:19:13;13.80;;;7.28;;
6828;SDS011;17930;48.592;8.868;2022-12-07T06:21:40;16.70;;;7.80;;
6828;SDS011;17930;48.592;8.868;2022-12-07T06:24:08;15.75;;;7.15;;
6828;SDS011;17930;48.592;8.868;2022-12-07T06:26:37;16.77;;;7.80;;
6828;SDS011;17930;48.592;8.868;2022-12-07T06:29:03;13.68;;;7.43;;
6828;SDS011;17930;48.592;8.868;2022-12-07T06:31:30;12.85;;;6.70;;
6828;SDS011;17930;48.592;8.868;2022-12-07T06:33:59;16.00;;;8.23;;
6828;SDS011;17930;48.592;8.868;2022-12-07T06:36:27;12.18;;;6.63;;
6828;SDS011;17930;48.592;8.868;2022-12-07T06:38:54;15.80;;;6.88;;
6828;SDS011;17930;48.592;8.868;2022-12-07T06:41:35;16.75;;;8.13;;
6828;SDS011;17930;48.592;8.868;2022-12-07T06:44:02;16.73;;;7.65;;
6828;SDS011;17930;48.592;8.868;2022-12-07T06:46:30;15.60;;;7.32;;
6828;SDS011;17930;48.592;8.868;2022-12-07T06:48:56;13.68;;;7.28;;
6828;SDS011;17930;48.592;8.868;2022-12-07T06:51:25;18.25;;;7.75;;
6828;SDS011;17930;48.592;8.868;2022-12-07T06:53:52;13.35;;;6.82;;
6828;SDS011;17930;48.592;8.868;2022-12-07T06:56:19;17.55;;;6.78;;
6828;SDS011;17930;48.592;8.868;2022-12-07T06:58:45;12.88;;;7.22;;
6828;SDS011;17930;48.592;8.868;2022-12-07T07:01:13;14.80;;;7.28;;
6828;SDS011;17930;48.592;8.868;2022-12-07T07:03:41;13.85;;;6.82;;
6828;SDS011;17930;48.592;8.868;2022-12-07T07:06:10;13.23;;;7.00;;
6828;SDS011;17930;48.592;8.868;2022-12-07T07:08:37;18.38;;;7.15;;
6828;SDS011;17930;48.592;8.868;2022-12-07T07:11:05;16.48;;;7.88;;
6828;SDS011;17930;48.592;8.868;2022-12-07T07:13:33;22.73;;;8.88;;
6828;SDS011;17930;48.592;8.868;2022-12-07T07:16:00;16.27;;;7.50;;
6828;SDS011;17930;48.592;8.868;2022-12-07T07:18:30;15.15;;;8.63;;
6828;SDS011;17930;48.592;8.868;2022-12-07T07:20:58;16.15;;;7.95;;
6828;SDS011;17930;48.592;8.868;2022-12-07T07:23:30;13.70;;;7.22;;
6828;SDS011;17930;48.592;8.868;2022-12-07T07:26:02;16.17;;;7.18;;
6828;SDS011;17930;48.592;8.868;2022-12-07T07:28:29;25.00;;;8.68;;
6828;SDS011;17930;48.592;8.868;2022-12-07T07:30:56;15.52;;;7.57;;
6828;SDS011;17930;48.592;8.868;2022-12-07T07:33:23;14.05;;;6.43;;
6828;SDS011;17930;48.592;8.868;2022-12-07T07:35:50;15.15;;;7.55;;
6828;SDS011;17930;48.592;8.868;2022-12-07T07:38:16;16.35;;;7.40;;
6828;SDS011;17930;48.592;8.868;2022-12-07T07:40:44;16.52;;;7.90;;
6828;SDS011;17930;48.592;8.868;2022-12-07T07:43:11;16.75;;;8.02;;
6828;SDS011;17930;48.592;8.868;2022-12-07T07:45:38;17.58;;;8.60;;
6828;SDS011;17930;48.592;8.868;2022-12-07T07:48:05;16.67;;;8.32;;
6828;SDS011;17930;48.592;8.868;2022-12-07T07:50:32;13.75;;;6.40;;
6828;SDS011;17930;48.592;8.868;2022-12-07T07:52:59;14.85;;;8.00;;
6828;SDS011;17930;48.592;8.868;2022-12-07T07:55:26;21.42;;;7.82;;
6828;SDS011;17930;48.592;8.868;2022-12-07T07:57:54;22.23;;;7.93;;
6828;SDS011;17930;48.592;8.868;2022-12-07T08:00:21;22.83;;;9.23;;
6828;SDS011;17930;48.592;8.868;2022-12-07T08:02:48;23.27;;;10.75;;
6828;SDS011;17930;48.592;8.868;2022-12-07T08:05:15;26.60;;;12.98;;
6828;SDS011;17930;48.592;8.868;2022-12-07T08:07:42;21.70;;;10.57;;
6828;SDS011;17930;48.592;8.868;2022-12-07T08:10:10;18.10;;;9.23;;
6828;SDS011;17930;48.592;8.868;2022-12-07T08:12:38;18.67;;;9.90;;
6828;SDS011;17930;48.592;8.868;2022-12-07T08:15:33;16.75;;;9.15;;
6828;SDS011;17930;48.592;8.868;2022-12-07T08:18:03;19.17;;;9.15;;
6828;SDS011;17930;48.592;8.868;2022-12-07T08:20:30;23.13;;;10.40;;
6828;SDS011;17930;48.592;8.868;2022-12-07T08:22:58;17.23;;;8.95;;
6828;SDS011;17930;48.592;8.868;2022-12-07T08:25:25;18.58;;;9.30;;
6828;SDS011;17930;48.592;8.868;2022-12-07T08:27:52;31.60;;;12.13;;
6828;SDS011;17930;48.592;8.868;2022-12-07T08:30:20;22.23;;;11.80;;
6828;SDS011;17930;48.592;8.868;2022-12-07T08:32:48;17.52;;;9.25;;
6828;SDS011;17930;48.592;8.868;2022-12-07T08:35:15;21.95;;;8.48;;
6828;SDS011;17930;48.592;8.868;2022-12-07T08:37:42;15.52;;;8.45;;
6828;SDS011;17930;48.592;8.868;2022-12-07T08:40:11;22.88;;;11.00;;
6828;SDS011;17930;48.592;8.868;2022-12-07T08:42:40;17.27;;;8.10;;
6828;SDS011;17930;48.592;8.868;2022-12-07T08:45:08;15.73;;;7.53;;
6828;SDS011;17930;48.592;8.868;2022-12-07T08:47:37;13.25;;;8.05;;
6828;SDS011;17930;48.592;8.868;2022-12-07T08:50:10;12.73;;;7.07;;
6828;SDS011;17930;48.592;8.868;2022-12-07T08:52:40;14.25;;;7.07;;
6828;SDS011;17930;48.592;8.868;2022-12-07T08:55:09;16.10;;;7.57;;
6828;SDS011;17930;48.592;8.868;2022-12-07T08:57:37;12.18;;;6.53;;
6828;SDS011;17930;48.592;8.868;2022-12-07T09:00:06;16.38;;;7.38;;
6828;SDS011;17930;48.592;8.868;2022-12-07T09:02:34;13.38;;;6.97;;
6828;SDS011;17930;48.592;8.868;2022-12-07T09:05:01;12.43;;;6.20;;
6828;SDS011;17930;48.592;8.868;2022-12-07T09:07:29;10.30;;;5.82;;
6828;SDS011;17930;48.592;8.868;2022-12-07T09:09:58;11.90;;;6.57;;
6828;SDS011;17930;48.592;8.868;2022-12-07T09:12:24;14.98;;;8.02;;
6828;SDS011;17930;48.592;8.868;2022-12-07T09:14:51;13.02;;;7.65;;
6828;SDS011;17930;48.592;8.868;2022-12-07T09:17:18;13.43;;;6.97;;
6828;SDS011;17930;48.592;8.868;2022-12-07T09:19:45;15.90;;;5.88;;
6828;SDS011;17930;48.592;8.868;2022-12-07T09:22:12;12.48;;;5.65;;
6828;SDS011;17930;48.592;8.868;2022-12-07T09:24:40;10.90;;;5.30;;
6828;SDS011;17930;48.592;8.868;2022-12-07T09:27:06;8.00;;;4.55;;
6828;SDS011;17930;48.592;8.868;2022-12-07T09:29:33;7.90;;;4.95;;
6828;SDS011;17930;48.592;8.868;2022-12-07T09:32:00;7.90;;;5.05;;
6828;SDS011;17930;48.592;8.868;2022-12-07T09:34:27;8.82;;;4.95;;
6828;SDS011;17930;48.592;8.868;2022-12-07T09:37:00;8.48;;;4.20;;
6828;SDS011;17930;48.592;8.868;2022-12-07T09:39:28;8.57;;;4.18;;
6828;SDS011;17930;48.592;8.868;2022-12-07T09:41:56;9.75;;;4.32;;
6828;SDS011;17930;48.592;8.868;2022-12-07T09:44:24;8.15;;;4.65;;
6828;SDS011;17930;48.592;8.868;2022-12-07T09:46:52;15.60;;;4.57;;
6828;SDS011;17930;48.592;8.868;2022-12-07T09:49:20;6.40;;;4.18;;
6828;SDS011;17930;48.592;8.868;2022-12-07T09:51:58;9.60;;;4.93;;
6828;SDS011;17930;48.592;8.868;2022-12-07T09:54:27;9.75;;;4.93;;
6828;SDS011;17930;48.592;8.868;2022-12-07T09:56:57;6.93;;;4.03;;
6828;SDS011;17930;48.592;8.868;2022-12-07T09:59:25;7.45;;;4.25;;
6828;SDS011;17930;48.592;8.868;2022-12-07T10:01:52;5.90;;;3.90;;
6828;SDS011;17930;48.592;8.868;2022-12-07T10:04:21;6.82;;;3.92;;
6828;SDS011;17930;48.592;8.868;2022-12-07T10:06:50;9.00;;;4.70;;
6828;SDS011;17930;48.592;8.868;2022-12-07T10:09:18;8.82;;;4.35;;
6828;SDS011;17930;48.592;8.868;2022-12-07T10:12:01;6.75;;;4.00;;
6828;SDS011;17930;48.592;8.868;2022-12-07T10:14:31;11.13;;;3.70;;
6828;SDS011;17930;48.592;8.868;2022-12-07T10:16:58;7.55;;;3.50;;
6828;SDS011;17930;48.592;8.868;2022-12-07T10:19:27;18.30;;;5.75;;
6828;SDS011;17930;48.592;8.868;2022-12-07T10:22:02;9.32;;;4.53;;
6828;SDS011;17930;48.592;8.868;2022-12-07T10:24:31;9.52;;;5.00;;
6828;SDS011;17930;48.592;8.868;2022-12-07T10:26:57;7.80;;;4.45;;
6828;SDS011;17930;48.592;8.868;2022-12-07T10:29:28;8.98;;;4.63;;
6828;SDS011;17930;48.592;8.868;2022-12-07T10:31:57;6.07;;;4.00;;
6828;SDS011;17930;48.592;8.868;2022-12-07T10:34:27;8.60;;;4.20;;
6828;SDS011;17930;48.592;8.868;2022-12-07T10:37:14;7.78;;;4.00;;
6828;SDS011;17930;48.592;8.868;2022-12-07T10:39:43;6.70;;;4.30;;
6828;SDS011;17930;48.592;8.868;2022-12-07T10:42:16;5.37;;;3.60;;
6828;SDS011;17930;48.592;8.868;2022-12-07T10:44:46;6.70;;;3.97;;
6828;SDS011;17930;48.592;8.868;2022-12-07T10:47:29;6.57;;;3.97;;
6828;SDS011;17930;48.592;8.868;2022-12-07T10:50:06;8.30;;;4.73;;
6828;SDS011;17930;48.592;8.868;2022-12-07T10:55:56;7.85;;;4.15;;
6828;SDS011;17930;48.592;8.868;2022-12-07T10:59:26;7.17;;;3.70;;
6828;SDS011;17930;48.592;8.868;2022-12-07T11:02:13;5.97;;;3.73;;
6828;SDS011;17930;48.592;8.868;2022-12-07T11:05:06;5.57;;;3.73;;
6828;SDS011;17930;48.592;8.868;2022-12-07T11:07:45;8.43;;;3.97;;
6828;SDS011;17930;48.592;8.868;2022-12-07T11:10:24;9.37;;;4.10;;
6828;SDS011;17930;48.592;8.868;2022-12-07T11:13:04;5.15;;;3.53;;
6828;SDS011;17930;48.592;8.868;2022-12-07T11:18:55;5.90;;;3.73;;
6828;SDS011;17930;48.592;8.868;2022-12-07T11:21:33;9.30;;;4.83;;
6828;SDS011;17930;48.592;8.868;2022-12-07T11:24:14;8.60;;;4.80;;
6828;SDS011;17930;48.592;8.868;2022-12-07T11:35:43;6.50;;;3.93;;
6828;SDS011;17930;48.592;8.868;2022-12-07T11:38:18;9.80;;;4.00;;
6828;SDS011;17930;48.592;8.868;2022-12-07T11:40:53;6.40;;;3.80;;
6828;SDS011;17930;48.592;8.868;2022-12-07T11:43:39;7.53;;;3.53;;
6828;SDS011;17930;48.592;8.868;2022-12-07T11:46:27;7.37;;;4.80;;
6828;SDS011;17930;48.592;8.868;2022-12-07T11:49:03;6.60;;;3.70;;
6828;SDS011;17930;48.592;8.868;2022-12-07T11:54:14;7.37;;;4.23;;
6828;SDS011;17930;48.592;8.868;2022-12-07T11:56:46;7.03;;;3.30;;
6828;SDS011;17930;48.592;8.868;2022-12-07T11:59:17;7.00;;;4.00;;
6828;SDS011;17930;48.592;8.868;2022-12-07T12:01:51;9.50;;;4.83;;
6828;SDS011;17930;48.592;8.868;2022-12-07T12:04:29;6.70;;;3.87;;
6828;SDS011;17930;48.592;8.868;2022-12-07T12:07:00;7.13;;;3.90;;
6828;SDS011;17930;48.592;8.868;2022-12-07T12:09:30;7.03;;;4.13;;
6828;SDS011;17930;48.592;8.868;2022-12-07T12:12:05;6.80;;;3.87;;
6828;SDS011;17930;48.592;8.868;2022-12-07T12:14:45;6.27;;;3.83;;
6828;SDS011;17930;48.592;8.868;2022-12-07T12:17:29;5.83;;;3.87;;
6828;SDS011;17930;48.592;8.868;2022-12-07T12:20:17;6.63;;;4.00;;
6828;SDS011;17930;48.592;8.868;2022-12-07T12:22:50;6.53;;;3.80;;
6828;SDS011;17930;48.592;8.868;2022-12-07T12:25:23;6.10;;;3.90;;
6828;SDS011;17930;48.592;8.868;2022-12-07T12:27:54;5.73;;;3.87;;
6828;SDS011;17930;48.592;8.868;2022-12-07T12:30:25;6.17;;;3.53;;
6828;SDS011;17930;48.592;8.868;2022-12-07T12:33:02;5.40;;;3.43;;
6828;SDS011;17930;48.592;8.868;2022-12-07T12:35:33;9.37;;;4.93;;
6828;SDS011;17930;48.592;8.868;2022-12-07T12:40:55;4.37;;;2.97;;
6828;SDS011;17930;48.592;8.868;2022-12-07T12:49:32;9.83;;;3.77;;
6828;SDS011;17930;48.592;8.868;2022-12-07T12:52:14;6.60;;;4.03;;
6828;SDS011;17930;48.592;8.868;2022-12-07T12:55:13;5.60;;;3.23;;
6828;SDS011;17930;48.592;8.868;2022-12-07T12:57:45;7.33;;;3.33;;
6828;SDS011;17930;48.592;8.868;2022-12-07T13:00:16;6.77;;;3.57;;
6828;SDS011;17930;48.592;8.868;2022-12-07T13:02:47;3.90;;;2.57;;
6828;SDS011;17930;48.592;8.868;2022-12-07T13:05:17;3.63;;;2.57;;
6828;SDS011;17930;48.592;8.868;2022-12-07T13:10:36;2.47;;;1.83;;
6828;SDS011;17930;48.592;8.868;2022-12-07T13:13:33;5.47;;;2.67;;
6828;SDS011;17930;48.592;8.868;2022-12-07T13:25:38;2.27;;;1.20;;
6828;SDS011;17930;48.592;8.868;2022-12-07T13:28:14;2.80;;;1.63;;
6828;SDS011;17930;48.592;8.868;2022-12-07T13:30:46;5.47;;;4.27;;
6828;SDS011;17930;48.592;8.868;2022-12-07T13:33:20;3.93;;;3.47;;
6828;SDS011;17930;48.592;8.868;2022-12-07T13:35:47;3.80;;;3.40;;
6828;SDS011;17930;48.592;8.868;2022-12-07T13:38:19;6.00;;;3.47;;
6828;SDS011;17930;48.592;8.868;2022-12-07T13:43:48;3.87;;;2.67;;
6828;SDS011;17930;48.592;8.868;2022-12-07T13:46:20;2.93;;;1.83;;
6828;SDS011;17930;48.592;8.868;2022-12-07T13:48:52;4.23;;;2.70;;
6828;SDS011;17930;48.592;8.868;2022-12-07T13:51:21;7.23;;;3.67;;
6828;SDS011;17930;48.592;8.868;2022-12-07T13:53:51;5.17;;;3.17;;
6828;SDS011;17930;48.592;8.868;2022-12-07T13:56:20;5.13;;;2.97;;
6828;SDS011;17930;48.592;8.868;2022-12-07T13:58:48;3.70;;;2.60;;
6828;SDS011;17930;48.592;8.868;2022-12-07T14:01:15;4.93;;;2.97;;
6828;SDS011;17930;48.592;8.868;2022-12-07T14:03:43;3.40;;;2.50;;
6828;SDS011;17930;48.592;8.868;2022-12-07T14:06:18;3.67;;;2.50;;
6828;SDS011;17930;48.592;8.868;2022-12-07T14:08:50;4.45;;;2.67;;
6828;SDS011;17930;48.592;8.868;2022-12-07T14:11:31;5.73;;;2.80;;
6828;SDS011;17930;48.592;8.868;2022-12-07T14:13:58;4.68;;;2.60;;
6828;SDS011;17930;48.592;8.868;2022-12-07T14:16:27;4.60;;;2.30;;
6828;SDS011;17930;48.592;8.868;2022-12-07T14:18:58;2.83;;;2.10;;
6828;SDS011;17930;48.592;8.868;2022-12-07T14:21:27;3.03;;;1.85;;
6828;SDS011;17930;48.592;8.868;2022-12-07T14:24:12;4.72;;;2.92;;
6828;SDS011;17930;48.592;8.868;2022-12-07T14:26:43;4.97;;;3.30;;
6828;SDS011;17930;48.592;8.868;2022-12-07T14:29:19;4.53;;;3.15;;
6828;SDS011;17930;48.592;8.868;2022-12-07T14:31:47;4.78;;;3.25;;
6828;SDS011;17930;48.592;8.868;2022-12-07T14:34:15;7.83;;;4.17;;
6828;SDS011;17930;48.592;8.868;2022-12-07T14:36:42;8.25;;;4.05;;
6828;SDS011;17930;48.592;8.868;2022-12-07T14:39:09;5.55;;;3.70;;
6828;SDS011;17930;48.592;8.868;2022-12-07T14:41:35;5.60;;;3.00;;
6828;SDS011;17930;48.592;8.868;2022-12-07T14:44:18;2.70;;;2.00;;
6828;SDS011;17930;48.592;8.868;2022-12-07T14:46:46;2.67;;;1.98;;
6828;SDS011;17930;48.592;8.868;2022-12-07T14:49:13;4.68;;;2.80;;
6828;SDS011;17930;48.592;8.868;2022-12-07T14:51:41;4.22;;;2.80;;
6828;SDS011;17930;48.592;8.868;2022-12-07T14:54:12;6.93;;;3.05;;
6828;SDS011;17930;48.592;8.868;2022-12-07T14:56:42;6.75;;;2.55;;
6828;SDS011;17930;48.592;8.868;2022-12-07T14:59:11;3.75;;;2.65;;
6828;SDS011;17930;48.592;8.868;2022-12-07T15:01:38;3.50;;;2.40;;
6828;SDS011;17930;48.592;8.868;2022-12-07T15:04:05;2.72;;;2.15;;
6828;SDS011;17930;48.592;8.868;2022-12-07T15:06:32;6.63;;;2.40;;
6828;SDS011;17930;48.592;8.868;2022-12-07T15:09:00;2.88;;;1.80;;
6828;SDS011;17930;48.592;8.868;2022-12-07T15:11:27;3.03;;;2.10;;
6828;SDS011;17930;48.592;8.868;2022-12-07T15:13:53;5.07;;;2.70;;
6828;SDS011;17930;48.592;8.868;2022-12-07T15:16:37;8.00;;;3.65;;
6828;SDS011;17930;48.592;8.868;2022-12-07T15:19:05;14.40;;;4.13;;
6828;SDS011;17930;48.592;8.868;2022-12-07T15:21:36;6.95;;;3.30;;
6828;SDS011;17930;48.592;8.868;2022-12-07T15:24:05;4.93;;;2.88;;
6828;SDS011;17930;48.592;8.868;2022-12-07T15:26:32;9.57;;;4.18;;
6828;SDS011;17930;48.592;8.868;2022-12-07T15:28:58;7.00;;;2.80;;
6828;SDS011;17930;48.592;8.868;2022-12-07T15:31:25;4.45;;;2.65;;
6828;SDS011;17930;48.592;8.868;2022-12-07T15:33:52;4.80;;;2.97;;
6828;SDS011;17930;48.592;8.868;2022-12-07T15:36:19;4.30;;;2.45;;
6828;SDS011;17930;48.592;8.868;2022-12-07T15:38:48;5.07;;;3.15;;
6828;SDS011;17930;48.592;8.868;2022-12-07T15:41:16;3.28;;;2.10;;
6828;SDS011;17930;48.592;8.868;2022-12-07T15:43:44;6.40;;;3.15;;
6828;SDS011;17930;48.592;8.868;2022-12-07T15:46:31;5.10;;;3.58;;
6828;SDS011;17930;48.592;8.868;2022-12-07T15:48:59;7.57;;;3.28;;
6828;SDS011;17930;48.592;8.868;2022-12-07T15:51:26;8.40;;;3.92;;
6828;SDS011;17930;48.592;8.868;2022-12-07T15:53:53;7.03;;;4.20;;
6828;SDS011;17930;48.592;8.868;2022-12-07T15:56:21;9.35;;;4.32;;
6828;SDS011;17930;48.592;8.868;2022-12-07T15:58:48;7.10;;;3.50;;
6828;SDS011;17930;48.592;8.868;2022-12-07T16:01:16;7.32;;;3.83;;
6828;SDS011;17930;48.592;8.868;2022-12-07T16:03:44;10.88;;;4.53;;